sensor_id;sensor_type;location;lat;lon;timestamp;pressure;altitude;pressure_sealevel;temperature;humidity
76122;BME280;64853;53.200;6.080;2023-04-01T00:04:36;99184.09;;;18.41;46.36
76122;BME280;64853;53.200;6.080;2023-04-01T00:09:28;99181.66;;;18.39;46.42
76122;BME280;64853;53.200;6.080;2023-04-01T00:14:20;99186.69;;;18.37;46.45
76122;BME280;64853;53.200;6.080;2023-04-01T00:19:12;99183.94;;;18.37;46.26
76122;BME280;64853;53.200;6.080;2023-04-01T00:24:05;99178.13;;;18.30;46.30
76122;BME280;64853;53.200;6.080;2023-04-01T00:28:58;99185.72;;;18.33;46.25
76122;BME280;64853;53.200;6.080;2023-04-01T00:33:51;99176.50;;;18.29;46.19
76122;BME280;64853;53.200;6.080;2023-04-01T00:38:45;99178.44;;;18.29;46.45
76122;BME280;64853;53.200;6.080;2023-04-01T00:43:38;99152.25;;;18.14;46.42
76122;BME280;64853;53.200;6.080;2023-04-01T00:48:34;99185.91;;;18.28;46.34
76122;BME280;64853;53.200;6.080;2023-04-01T00:53:30;99169.72;;;18.18;46.14
76122;BME280;64853;53.200;6.080;2023-04-01T00:58:24;99190.13;;;18.26;46.17
76122;BME280;64853;53.200;6.080;2023-04-01T01:03:19;99175.41;;;18.21;46.42
76122;BME280;64853;53.200;6.080;2023-04-01T01:08:15;99178.63;;;18.24;46.29
76122;BME280;64853;53.200;6.080;2023-04-01T01:13:11;99189.19;;;18.21;46.30
76122;BME280;64853;53.200;6.080;2023-04-01T01:18:10;99176.41;;;18.08;46.29
76122;BME280;64853;53.200;6.080;2023-04-01T01:23:28;99184.34;;;18.10;46.49
76122;BME280;64853;53.200;6.080;2023-04-01T01:28:36;99205.56;;;18.18;46.23
76122;BME280;64853;53.200;6.080;2023-04-01T01:33:56;99203.44;;;18.15;46.43
76122;BME280;64853;53.200;6.080;2023-04-01T01:38:55;99199.75;;;18.11;46.42
76122;BME280;64853;53.200;6.080;2023-04-01T01:43:50;99205.75;;;18.13;46.24
76122;BME280;64853;53.200;6.080;2023-04-01T01:48:43;99212.41;;;18.12;46.47
76122;BME280;64853;53.200;6.080;2023-04-01T01:53:37;99187.56;;;17.94;46.09
76122;BME280;64853;53.200;6.080;2023-04-01T01:58:32;99174.00;;;17.80;46.30
76122;BME280;64853;53.200;6.080;2023-04-01T02:03:33;99225.22;;;18.08;46.42
76122;BME280;64853;53.200;6.080;2023-04-01T02:08:28;99227.50;;;18.06;46.41
76122;BME280;64853;53.200;6.080;2023-04-01T02:13:27;99235.75;;;18.06;46.43
76122;BME280;64853;53.200;6.080;2023-04-01T02:18:25;99230.41;;;18.00;46.47
76122;BME280;64853;53.200;6.080;2023-04-01T02:23:17;99246.28;;;18.03;46.45
76122;BME280;64853;53.200;6.080;2023-04-01T02:28:10;99239.28;;;17.97;46.41
76122;BME280;64853;53.200;6.080;2023-04-01T02:33:07;99243.38;;;18.00;46.36
76122;BME280;64853;53.200;6.080;2023-04-01T02:38:01;99240.28;;;17.93;46.65
76122;BME280;64853;53.200;6.080;2023-04-01T02:42:53;99254.72;;;17.98;46.53
76122;BME280;64853;53.200;6.080;2023-04-01T02:47:45;99258.56;;;17.97;46.46
76122;BME280;64853;53.200;6.080;2023-04-01T02:52:37;99262.47;;;17.96;46.34
76122;BME280;64853;53.200;6.080;2023-04-01T02:57:31;99254.06;;;17.84;46.34
76122;BME280;64853;53.200;6.080;2023-04-01T03:02:23;99262.97;;;17.90;46.47
76122;BME280;64853;53.200;6.080;2023-04-01T03:07:15;99283.22;;;17.94;46.38
76122;BME280;64853;53.200;6.080;2023-04-01T03:12:07;99263.63;;;17.78;46.36
76122;BME280;64853;53.200;6.080;2023-04-01T03:17:00;99287.78;;;17.90;46.45
76122;BME280;64853;53.200;6.080;2023-04-01T03:21:52;99273.34;;;17.84;46.33
76122;BME280;64853;53.200;6.080;2023-04-01T03:26:44;99297.50;;;17.87;46.39
76122;BME280;64853;53.200;6.080;2023-04-01T03:31:36;99284.53;;;17.79;46.56
76122;BME280;64853;53.200;6.080;2023-04-01T03:36:30;99307.72;;;17.87;46.52
76122;BME280;64853;53.200;6.080;2023-04-01T03:41:22;99316.31;;;17.85;46.53
76122;BME280;64853;53.200;6.080;2023-04-01T03:46:17;99304.28;;;17.81;46.35
76122;BME280;64853;53.200;6.080;2023-04-01T03:51:09;99318.53;;;17.83;46.60
76122;BME280;64853;53.200;6.080;2023-04-01T03:56:05;99322.47;;;17.82;46.63
76122;BME280;64853;53.200;6.080;2023-04-01T04:00:57;99323.59;;;17.81;46.45
76122;BME280;64853;53.200;6.080;2023-04-01T04:05:50;99322.75;;;17.72;46.47
76122;BME280;64853;53.200;6.080;2023-04-01T04:10:42;99311.44;;;17.64;46.71
76122;BME280;64853;53.200;6.080;2023-04-01T04:15:35;99337.19;;;17.77;46.60
76122;BME280;64853;53.200;6.080;2023-04-01T04:20:28;99340.28;;;17.76;46.49
76122;BME280;64853;53.200;6.080;2023-04-01T04:25:20;99345.78;;;17.76;46.52
76122;BME280;64853;53.200;6.080;2023-04-01T04:30:13;99347.72;;;17.66;46.59
76122;BME280;64853;53.200;6.080;2023-04-01T04:35:08;99364.06;;;17.72;46.69
76122;BME280;64853;53.200;6.080;2023-04-01T04:40:00;99374.13;;;17.67;46.79
76122;BME280;64853;53.200;6.080;2023-04-01T04:44:52;99377.22;;;17.92;46.53
76122;BME280;64853;53.200;6.080;2023-04-01T04:49:43;99382.47;;;18.20;46.29
76122;BME280;64853;53.200;6.080;2023-04-01T04:54:37;99393.34;;;18.43;45.89
76122;BME280;64853;53.200;6.080;2023-04-01T04:59:30;99392.66;;;18.54;45.82
76122;BME280;64853;53.200;6.080;2023-04-01T05:04:22;99390.56;;;18.60;45.44
76122;BME280;64853;53.200;6.080;2023-04-01T05:09:15;99388.47;;;18.66;45.51
76122;BME280;64853;53.200;6.080;2023-04-01T05:14:13;99406.47;;;18.81;45.54
76122;BME280;64853;53.200;6.080;2023-04-01T05:19:05;99415.03;;;18.97;45.22
76122;BME280;64853;53.200;6.080;2023-04-01T05:23:57;99417.59;;;19.10;44.90
76122;BME280;64853;53.200;6.080;2023-04-01T05:28:49;99427.78;;;19.19;44.78
76122;BME280;64853;53.200;6.080;2023-04-01T05:33:43;99417.06;;;19.17;45.10
76122;BME280;64853;53.200;6.080;2023-04-01T05:38:35;99436.34;;;19.35;44.72
76122;BME280;64853;53.200;6.080;2023-04-01T05:43:27;99420.47;;;19.23;44.59
76122;BME280;64853;53.200;6.080;2023-04-01T05:48:20;99461.66;;;19.45;44.90
76122;BME280;64853;53.200;6.080;2023-04-01T05:53:13;99463.09;;;19.52;44.72
76122;BME280;64853;53.200;6.080;2023-04-01T05:58:05;99438.78;;;19.36;44.54
76122;BME280;64853;53.200;6.080;2023-04-01T06:02:58;99467.13;;;19.54;44.57
76122;BME280;64853;53.200;6.080;2023-04-01T06:07:51;99473.66;;;19.58;44.43
76122;BME280;64853;53.200;6.080;2023-04-01T06:12:57;99480.13;;;19.54;44.76
76122;BME280;64853;53.200;6.080;2023-04-01T06:18:12;99498.53;;;19.58;44.24
76122;BME280;64853;53.200;6.080;2023-04-01T06:29:03;99512.16;;;19.55;44.44
76122;BME280;64853;53.200;6.080;2023-04-01T06:34:13;99505.38;;;19.43;44.43
76122;BME280;64853;53.200;6.080;2023-04-01T06:39:39;99530.06;;;19.48;44.86
76122;BME280;64853;53.200;6.080;2023-04-01T06:44:42;99530.72;;;19.45;44.56
76122;BME280;64853;53.200;6.080;2023-04-01T06:49:49;99540.94;;;19.45;44.82
76122;BME280;64853;53.200;6.080;2023-04-01T06:54:47;99551.84;;;19.41;44.81
76122;BME280;64853;53.200;6.080;2023-04-01T06:59:42;99520.03;;;19.18;44.90
76122;BME280;64853;53.200;6.080;2023-04-01T07:04:37;99547.19;;;19.24;44.82
76122;BME280;64853;53.200;6.080;2023-04-01T07:09:34;99556.44;;;19.20;44.81
76122;BME280;64853;53.200;6.080;2023-04-01T07:14:30;99580.13;;;19.29;44.41
76122;BME280;64853;53.200;6.080;2023-04-01T07:19:31;99586.00;;;19.28;44.74
76122;BME280;64853;53.200;6.080;2023-04-01T07:24:26;99595.75;;;19.17;45.21
76122;BME280;64853;53.200;6.080;2023-04-01T07:29:21;99586.66;;;19.07;45.45
76122;BME280;64853;53.200;6.080;2023-04-01T07:34:17;99600.13;;;19.26;45.14
76122;BME280;64853;53.200;6.080;2023-04-01T07:39:21;99611.47;;;19.42;45.72
76122;BME280;64853;53.200;6.080;2023-04-01T07:44:25;99600.25;;;19.47;45.69
76122;BME280;64853;53.200;6.080;2023-04-01T07:49:25;99622.19;;;19.61;45.07
76122;BME280;64853;53.200;6.080;2023-04-01T07:54:29;99632.28;;;19.66;44.88
76122;BME280;64853;53.200;6.080;2023-04-01T07:59:29;99644.72;;;19.90;45.21
76122;BME280;64853;53.200;6.080;2023-04-01T08:04:30;99653.97;;;19.94;44.80
76122;BME280;64853;53.200;6.080;2023-04-01T08:09:34;99640.19;;;19.76;45.37
76122;BME280;64853;53.200;6.080;2023-04-01T08:14:33;99661.00;;;19.82;44.60
76122;BME280;64853;53.200;6.080;2023-04-01T08:19:35;99674.34;;;19.80;44.86
76122;BME280;64853;53.200;6.080;2023-04-01T08:24:39;99667.22;;;19.62;44.58
76122;BME280;64853;53.200;6.080;2023-04-01T08:29:38;99672.59;;;19.58;44.68
76122;BME280;64853;53.200;6.080;2023-04-01T08:34:37;99697.09;;;19.69;45.32
76122;BME280;64853;53.200;6.080;2023-04-01T08:39:32;99711.25;;;19.67;45.30
76122;BME280;64853;53.200;6.080;2023-04-01T08:45:01;99722.94;;;19.64;44.86
76122;BME280;64853;53.200;6.080;2023-04-01T08:50:26;99723.75;;;19.56;44.96
76122;BME280;64853;53.200;6.080;2023-04-01T08:55:31;99716.13;;;19.44;45.27
76122;BME280;64853;53.200;6.080;2023-04-01T09:00:31;99742.44;;;19.50;44.92
76122;BME280;64853;53.200;6.080;2023-04-01T09:05:55;99732.03;;;19.38;45.75
76122;BME280;64853;53.200;6.080;2023-04-01T09:11:07;99754.78;;;19.53;46.45
76122;BME280;64853;53.200;6.080;2023-04-01T09:16:23;99767.00;;;19.52;46.37
76122;BME280;64853;53.200;6.080;2023-04-01T09:21:32;99770.22;;;19.45;46.23
76122;BME280;64853;53.200;6.080;2023-04-01T09:32:00;99786.47;;;19.46;45.63
76122;BME280;64853;53.200;6.080;2023-04-01T09:37:17;99800.44;;;19.41;45.60
76122;BME280;64853;53.200;6.080;2023-04-01T09:42:42;99811.31;;;19.38;45.65
76122;BME280;64853;53.200;6.080;2023-04-01T09:47:47;99805.44;;;19.30;46.00
76122;BME280;64853;53.200;6.080;2023-04-01T09:52:49;99821.22;;;19.30;46.08
76122;BME280;64853;53.200;6.080;2023-04-01T09:58:19;99828.38;;;19.31;46.56
76122;BME280;64853;53.200;6.080;2023-04-01T10:03:49;99842.72;;;19.42;45.92
76122;BME280;64853;53.200;6.080;2023-04-01T10:09:16;99842.50;;;19.38;45.49
76122;BME280;64853;53.200;6.080;2023-04-01T10:14:33;99861.22;;;19.41;45.53
76122;BME280;64853;53.200;6.080;2023-04-01T10:30:58;99896.00;;;19.42;46.60
76122;BME280;64853;53.200;6.080;2023-04-01T10:36:18;99894.53;;;19.45;45.89
76122;BME280;64853;53.200;6.080;2023-04-01T10:58:12;99921.66;;;19.92;45.33
76122;BME280;64853;53.200;6.080;2023-04-01T11:15:22;99948.66;;;19.95;44.97
76122;BME280;64853;53.200;6.080;2023-04-01T11:20:52;99967.38;;;19.98;46.05
76122;BME280;64853;53.200;6.080;2023-04-01T11:26:00;99973.72;;;19.98;46.68
76122;BME280;64853;53.200;6.080;2023-04-01T11:31:03;99979.44;;;20.11;47.86
76122;BME280;64853;53.200;6.080;2023-04-01T11:36:02;99983.00;;;20.11;46.03
76122;BME280;64853;53.200;6.080;2023-04-01T11:41:13;99992.78;;;20.09;45.56
76122;BME280;64853;53.200;6.080;2023-04-01T11:46:11;99999.59;;;20.11;45.44
76122;BME280;64853;53.200;6.080;2023-04-01T11:51:30;99998.44;;;20.04;45.14
76122;BME280;64853;53.200;6.080;2023-04-01T11:56:51;100018.31;;;20.06;45.69
76122;BME280;64853;53.200;6.080;2023-04-01T12:01:56;100021.88;;;19.97;45.43
76122;BME280;64853;53.200;6.080;2023-04-01T12:06:59;100027.16;;;19.76;45.30
76122;BME280;64853;53.200;6.080;2023-04-01T12:12:03;100053.03;;;19.80;44.20
76122;BME280;64853;53.200;6.080;2023-04-01T12:17:06;100052.16;;;19.71;44.75
76122;BME280;64853;53.200;6.080;2023-04-01T12:22:20;100073.66;;;19.74;44.28
76122;BME280;64853;53.200;6.080;2023-04-01T12:27:36;100078.81;;;19.67;44.83
76122;BME280;64853;53.200;6.080;2023-04-01T12:32:39;100086.25;;;19.58;44.27
76122;BME280;64853;53.200;6.080;2023-04-01T12:37:39;100091.22;;;19.56;43.68
76122;BME280;64853;53.200;6.080;2023-04-01T12:42:44;100102.38;;;19.64;44.22
76122;BME280;64853;53.200;6.080;2023-04-01T12:48:01;100118.31;;;19.68;43.48
76122;BME280;64853;53.200;6.080;2023-04-01T12:53:06;100117.50;;;19.67;43.95
76122;BME280;64853;53.200;6.080;2023-04-01T12:58:34;100128.75;;;19.71;44.31
76122;BME280;64853;53.200;6.080;2023-04-01T13:03:48;100135.25;;;19.75;43.60
76122;BME280;64853;53.200;6.080;2023-04-01T13:08:51;100154.75;;;19.70;43.98
76122;BME280;64853;53.200;6.080;2023-04-01T13:19:27;100158.47;;;19.51;44.31
76122;BME280;64853;53.200;6.080;2023-04-01T13:24:35;100175.03;;;19.65;43.55
76122;BME280;64853;53.200;6.080;2023-04-01T13:29:32;100193.88;;;19.63;43.75
76122;BME280;64853;53.200;6.080;2023-04-01T13:34:42;100202.06;;;19.54;44.03
76122;BME280;64853;53.200;6.080;2023-04-01T13:39:50;100202.00;;;19.45;44.10
76122;BME280;64853;53.200;6.080;2023-04-01T13:44:48;100212.00;;;19.55;44.04
76122;BME280;64853;53.200;6.080;2023-04-01T13:50:05;100213.13;;;19.54;44.08
76122;BME280;64853;53.200;6.080;2023-04-01T14:00:37;100242.22;;;19.52;44.15
76122;BME280;64853;53.200;6.080;2023-04-01T14:05:48;100245.47;;;19.54;43.65
76122;BME280;64853;53.200;6.080;2023-04-01T14:10:44;100248.28;;;19.40;43.75
76122;BME280;64853;53.200;6.080;2023-04-01T14:15:58;100273.44;;;19.38;44.26
76122;BME280;64853;53.200;6.080;2023-04-01T14:21:06;100271.31;;;19.35;44.01
76122;BME280;64853;53.200;6.080;2023-04-01T14:26:13;100278.28;;;19.33;43.51
76122;BME280;64853;53.200;6.080;2023-04-01T14:36:43;100309.28;;;19.29;44.11
76122;BME280;64853;53.200;6.080;2023-04-01T14:41:47;100329.84;;;19.37;44.05
76122;BME280;64853;53.200;6.080;2023-04-01T14:52:26;100337.03;;;19.24;43.98
76122;BME280;64853;53.200;6.080;2023-04-01T14:57:24;100358.69;;;19.31;44.01
76122;BME280;64853;53.200;6.080;2023-04-01T15:02:45;100356.66;;;19.23;44.06
76122;BME280;64853;53.200;6.080;2023-04-01T15:08:03;100373.22;;;19.23;44.24
76122;BME280;64853;53.200;6.080;2023-04-01T15:13:05;100379.38;;;19.20;43.66
76122;BME280;64853;53.200;6.080;2023-04-01T15:18:08;100399.91;;;19.27;43.70
76122;BME280;64853;53.200;6.080;2023-04-01T15:23:12;100409.44;;;19.21;44.07
76122;BME280;64853;53.200;6.080;2023-04-01T15:28:17;100433.91;;;19.28;43.54
76122;BME280;64853;53.200;6.080;2023-04-01T15:33:34;100435.63;;;19.24;43.85
76122;BME280;64853;53.200;6.080;2023-04-01T15:38:37;100449.13;;;19.25;43.70
76122;BME280;64853;53.200;6.080;2023-04-01T15:43:40;100462.13;;;19.25;43.52
76122;BME280;64853;53.200;6.080;2023-04-01T15:48:51;100468.75;;;19.24;44.01
76122;BME280;64853;53.200;6.080;2023-04-01T15:53:54;100487.78;;;19.25;43.81
76122;BME280;64853;53.200;6.080;2023-04-01T15:58:59;100489.25;;;19.23;43.71
76122;BME280;64853;53.200;6.080;2023-04-01T16:03:57;100507.44;;;19.24;43.80
76122;BME280;64853;53.200;6.080;2023-04-01T16:14:14;100522.84;;;19.11;43.92
76122;BME280;64853;53.200;6.080;2023-04-01T16:19:21;100523.25;;;19.04;43.85
76122;BME280;64853;53.200;6.080;2023-04-01T16:24:24;100558.28;;;19.23;43.99
76122;BME280;64853;53.200;6.080;2023-04-01T16:29:29;100561.66;;;19.20;43.52
76122;BME280;64853;53.200;6.080;2023-04-01T16:34:29;100571.06;;;19.19;43.46
76122;BME280;64853;53.200;6.080;2023-04-01T16:39:37;100587.13;;;19.17;43.42
76122;BME280;64853;53.200;6.080;2023-04-01T16:44:46;100595.59;;;19.20;43.78
76122;BME280;64853;53.200;6.080;2023-04-01T16:49:46;100599.88;;;19.13;43.51
76122;BME280;64853;53.200;6.080;2023-04-01T16:54:55;100607.09;;;19.08;43.52
76122;BME280;64853;53.200;6.080;2023-04-01T16:59:55;100636.81;;;19.17;43.58
76122;BME280;64853;53.200;6.080;2023-04-01T17:04:56;100648.38;;;19.19;43.60
76122;BME280;64853;53.200;6.080;2023-04-01T17:10:02;100652.84;;;19.15;43.78
76122;BME280;64853;53.200;6.080;2023-04-01T17:15:02;100664.44;;;19.17;43.14
76122;BME280;64853;53.200;6.080;2023-04-01T17:20:05;100674.44;;;19.13;43.10
76122;BME280;64853;53.200;6.080;2023-04-01T17:25:12;100676.09;;;19.14;43.60
76122;BME280;64853;53.200;6.080;2023-04-01T17:30:24;100694.06;;;19.30;43.14
76122;BME280;64853;53.200;6.080;2023-04-01T17:35:20;100707.78;;;19.35;43.51
76122;BME280;64853;53.200;6.080;2023-04-01T17:40:26;100719.28;;;19.42;43.54
76122;BME280;64853;53.200;6.080;2023-04-01T17:45:28;100742.72;;;19.64;43.41
76122;BME280;64853;53.200;6.080;2023-04-01T17:50:24;100744.78;;;19.58;43.54
76122;BME280;64853;53.200;6.080;2023-04-01T18:00:40;100774.28;;;19.63;43.15
76122;BME280;64853;53.200;6.080;2023-04-01T18:05:51;100791.06;;;19.67;43.50
76122;BME280;64853;53.200;6.080;2023-04-01T18:10:54;100802.94;;;19.67;43.53
76122;BME280;64853;53.200;6.080;2023-04-01T18:16:00;100820.75;;;19.61;43.29
76122;BME280;64853;53.200;6.080;2023-04-01T18:20:58;100828.75;;;19.62;43.03
76122;BME280;64853;53.200;6.080;2023-04-01T18:26:03;100807.13;;;19.45;43.63
76122;BME280;64853;53.200;6.080;2023-04-01T18:31:06;100869.44;;;19.76;45.29
76122;BME280;64853;53.200;6.080;2023-04-01T18:36:09;100870.81;;;19.78;44.97
76122;BME280;64853;53.200;6.080;2023-04-01T18:41:13;100879.84;;;19.84;45.99
76122;BME280;64853;53.200;6.080;2023-04-01T18:46:13;100907.25;;;19.80;43.85
76122;BME280;64853;53.200;6.080;2023-04-01T18:51:14;100908.53;;;19.69;43.55
76122;BME280;64853;53.200;6.080;2023-04-01T18:56:11;100927.41;;;19.62;43.78
76122;BME280;64853;53.200;6.080;2023-04-01T19:01:14;100923.03;;;19.56;43.57
76122;BME280;64853;53.200;6.080;2023-04-01T19:06:17;100951.75;;;19.60;43.98
76122;BME280;64853;53.200;6.080;2023-04-01T19:11:19;100942.97;;;19.58;43.71
76122;BME280;64853;53.200;6.080;2023-04-01T19:16:24;100968.88;;;19.62;43.94
76122;BME280;64853;53.200;6.080;2023-04-01T19:21:23;100978.44;;;19.70;44.69
76122;BME280;64853;53.200;6.080;2023-04-01T19:26:23;101001.16;;;19.67;43.75
76122;BME280;64853;53.200;6.080;2023-04-01T19:31:31;101014.69;;;19.68;44.27
76122;BME280;64853;53.200;6.080;2023-04-01T19:36:30;101023.56;;;19.65;44.00
76122;BME280;64853;53.200;6.080;2023-04-01T19:41:34;101013.53;;;19.45;43.35
76122;BME280;64853;53.200;6.080;2023-04-01T19:46:33;101020.25;;;19.39;43.51
76122;BME280;64853;53.200;6.080;2023-04-01T19:51:33;101041.47;;;19.43;43.29
76122;BME280;64853;53.200;6.080;2023-04-01T19:56:33;101067.50;;;19.37;43.35
76122;BME280;64853;53.200;6.080;2023-04-01T20:01:35;101046.47;;;19.12;43.69
76122;BME280;64853;53.200;6.080;2023-04-01T20:06:34;101084.69;;;19.29;43.65
76122;BME280;64853;53.200;6.080;2023-04-01T20:11:49;101088.34;;;19.24;43.61
76122;BME280;64853;53.200;6.080;2023-04-01T20:16:54;101106.31;;;19.22;44.03
76122;BME280;64853;53.200;6.080;2023-04-01T20:21:49;101113.56;;;19.13;43.81
76122;BME280;64853;53.200;6.080;2023-04-01T20:26:43;101120.25;;;19.06;44.13
76122;BME280;64853;53.200;6.080;2023-04-01T20:31:40;101136.47;;;19.13;44.16
76122;BME280;64853;53.200;6.080;2023-04-01T20:36:41;101151.72;;;19.10;44.07
76122;BME280;64853;53.200;6.080;2023-04-01T20:41:40;101155.03;;;19.07;43.76
76122;BME280;64853;53.200;6.080;2023-04-01T20:46:46;101142.19;;;18.87;44.09
76122;BME280;64853;53.200;6.080;2023-04-01T20:51:45;101162.84;;;18.95;43.59
76122;BME280;64853;53.200;6.080;2023-04-01T20:56:50;101175.56;;;18.96;43.65
76122;BME280;64853;53.200;6.080;2023-04-01T21:01:51;101183.56;;;18.92;43.63
76122;BME280;64853;53.200;6.080;2023-04-01T21:07:05;101201.84;;;18.88;43.71
76122;BME280;64853;53.200;6.080;2023-04-01T21:12:14;101196.09;;;18.69;43.37
76122;BME280;64853;53.200;6.080;2023-04-01T21:17:17;101210.16;;;18.83;43.85
76122;BME280;64853;53.200;6.080;2023-04-01T21:22:51;101228.09;;;18.81;43.68
76122;BME280;64853;53.200;6.080;2023-04-01T21:28:00;101236.91;;;18.78;43.37
76122;BME280;64853;53.200;6.080;2023-04-01T21:33:08;101256.53;;;18.76;43.32
76122;BME280;64853;53.200;6.080;2023-04-01T21:38:14;101259.03;;;18.72;43.28
76122;BME280;64853;53.200;6.080;2023-04-01T21:48:47;101292.72;;;18.64;43.27
76122;BME280;64853;53.200;6.080;2023-04-01T21:54:03;101304.06;;;18.63;42.92
76122;BME280;64853;53.200;6.080;2023-04-01T21:59:21;101314.00;;;18.58;43.09
76122;BME280;64853;53.200;6.080;2023-04-01T22:04:34;101323.09;;;18.54;42.98
76122;BME280;64853;53.200;6.080;2023-04-01T22:09:35;101323.66;;;18.51;43.22
76122;BME280;64853;53.200;6.080;2023-04-01T22:14:35;101337.72;;;18.49;42.97
76122;BME280;64853;53.200;6.080;2023-04-01T22:19:38;101354.03;;;18.46;42.54
76122;BME280;64853;53.200;6.080;2023-04-01T22:24:43;101360.91;;;18.43;42.53
76122;BME280;64853;53.200;6.080;2023-04-01T22:29:45;101365.06;;;18.35;42.60
76122;BME280;64853;53.200;6.080;2023-04-01T22:34:43;101378.56;;;18.37;42.53
76122;BME280;64853;53.200;6.080;2023-04-01T22:40:07;101383.84;;;18.33;42.37
76122;BME280;64853;53.200;6.080;2023-04-01T22:45:16;101388.25;;;18.29;42.34
76122;BME280;64853;53.200;6.080;2023-04-01T22:50:18;101403.69;;;18.25;42.22
76122;BME280;64853;53.200;6.080;2023-04-01T22:55:20;101388.25;;;18.09;42.24
76122;BME280;64853;53.200;6.080;2023-04-01T23:00:18;101415.00;;;18.18;42.18
76122;BME280;64853;53.200;6.080;2023-04-01T23:05:13;101410.84;;;18.16;41.95
76122;BME280;64853;53.200;6.080;2023-04-01T23:10:17;101415.25;;;18.01;41.75
76122;BME280;64853;53.200;6.080;2023-04-01T23:15:13;101428.78;;;18.03;42.03
76122;BME280;64853;53.200;6.080;2023-04-01T23:20:17;101447.25;;;18.08;41.83
76122;BME280;64853;53.200;6.080;2023-04-01T23:25:24;101457.16;;;17.98;41.72
76122;BME280;64853;53.200;6.080;2023-04-01T23:30:48;101473.16;;;18.01;41.52
76122;BME280;64853;53.200;6.080;2023-04-01T23:35:46;101481.97;;;17.98;41.77
76122;BME280;64853;53.200;6.080;2023-04-01T23:40:41;101497.94;;;17.96;41.44
76122;BME280;64853;53.200;6.080;2023-04-01T23:45:33;101504.00;;;17.93;41.46
76122;BME280;64853;53.200;6.080;2023-04-01T23:50:25;101513.63;;;17.91;41.30
76122;BME280;64853;53.200;6.080;2023-04-01T23:55:21;101517.44;;;17.79;41.50
